sensor_id;sensor_type;location;lat;lon;timestamp;P1;durP1;ratioP1;P2;durP2;ratioP2
43527;SDS011;52359;42.658;23.320;2022-07-29T00:00:43;8.82;;;7.03;;
43527;SDS011;52359;42.658;23.320;2022-07-29T00:03:10;8.30;;;7.50;;
43527;SDS011;52359;42.658;23.320;2022-07-29T00:05:39;8.10;;;7.07;;
43527;SDS011;52359;42.658;23.320;2022-07-29T00:08:05;8.70;;;6.93;;
43527;SDS011;52359;42.658;23.320;2022-07-29T00:10:32;7.88;;;7.07;;
43527;SDS011;52359;42.658;23.320;2022-07-29T00:12:58;8.82;;;7.00;;
43527;SDS011;52359;42.658;23.320;2022-07-29T00:15:24;8.70;;;6.60;;
43527;SDS011;52359;42.658;23.320;2022-07-29T00:17:50;11.35;;;7.53;;
43527;SDS011;52359;42.658;23.320;2022-07-29T00:20:16;14.32;;;7.28;;
43527;SDS011;52359;42.658;23.320;2022-07-29T00:22:42;10.18;;;7.22;;
43527;SDS011;52359;42.658;23.320;2022-07-29T00:25:08;8.90;;;6.82;;
43527;SDS011;52359;42.658;23.320;2022-07-29T00:27:35;11.68;;;7.20;;
43527;SDS011;52359;42.658;23.320;2022-07-29T00:30:01;11.95;;;7.25;;
43527;SDS011;52359;42.658;23.320;2022-07-29T00:32:27;10.35;;;7.13;;
43527;SDS011;52359;42.658;23.320;2022-07-29T00:34:53;7.85;;;6.88;;
43527;SDS011;52359;42.658;23.320;2022-07-29T00:37:37;8.20;;;6.45;;
43527;SDS011;52359;42.658;23.320;2022-07-29T00:40:03;17.73;;;6.63;;
43527;SDS011;52359;42.658;23.320;2022-07-29T00:42:30;7.75;;;5.97;;
43527;SDS011;52359;42.658;23.320;2022-07-29T00:44:56;11.13;;;7.00;;
43527;SDS011;52359;42.658;23.320;2022-07-29T00:47:22;8.40;;;6.85;;
43527;SDS011;52359;42.658;23.320;2022-07-29T00:49:48;18.60;;;6.55;;
43527;SDS011;52359;42.658;23.320;2022-07-29T00:52:14;8.77;;;6.68;;
43527;SDS011;52359;42.658;23.320;2022-07-29T00:54:40;10.77;;;6.43;;
43527;SDS011;52359;42.658;23.320;2022-07-29T00:57:06;11.30;;;6.90;;
43527;SDS011;52359;42.658;23.320;2022-07-29T00:59:33;9.93;;;6.72;;
43527;SDS011;52359;42.658;23.320;2022-07-29T01:01:59;7.72;;;6.90;;
43527;SDS011;52359;42.658;23.320;2022-07-29T01:04:25;8.85;;;6.88;;
43527;SDS011;52359;42.658;23.320;2022-07-29T01:06:52;7.00;;;6.38;;
43527;SDS011;52359;42.658;23.320;2022-07-29T01:09:19;8.52;;;7.13;;
43527;SDS011;52359;42.658;23.320;2022-07-29T01:11:45;13.70;;;8.88;;
43527;SDS011;52359;42.658;23.320;2022-07-29T01:14:15;13.52;;;10.30;;
43527;SDS011;52359;42.658;23.320;2022-07-29T01:16:51;15.05;;;10.43;;
43527;SDS011;52359;42.658;23.320;2022-07-29T01:22:06;13.48;;;12.07;;
43527;SDS011;52359;42.658;23.320;2022-07-29T01:27:43;12.55;;;11.30;;
43527;SDS011;52359;42.658;23.320;2022-07-29T01:30:06;17.65;;;11.07;;
43527;SDS011;52359;42.658;23.320;2022-07-29T01:32:33;12.30;;;11.07;;
43527;SDS011;52359;42.658;23.320;2022-07-29T01:37:37;12.30;;;10.80;;
43527;SDS011;52359;42.658;23.320;2022-07-29T01:40:04;13.10;;;10.77;;
43527;SDS011;52359;42.658;23.320;2022-07-29T01:42:35;18.67;;;12.05;;
43527;SDS011;52359;42.658;23.320;2022-07-29T01:45:06;12.37;;;10.20;;
43527;SDS011;52359;42.658;23.320;2022-07-29T01:47:40;11.93;;;10.10;;
43527;SDS011;52359;42.658;23.320;2022-07-29T01:50:08;15.68;;;10.23;;
43527;SDS011;52359;42.658;23.320;2022-07-29T01:52:43;16.58;;;11.63;;
43527;SDS011;52359;42.658;23.320;2022-07-29T01:55:14;12.73;;;10.60;;
43527;SDS011;52359;42.658;23.320;2022-07-29T01:57:42;17.60;;;11.20;;
43527;SDS011;52359;42.658;23.320;2022-07-29T02:00:09;16.48;;;12.45;;
43527;SDS011;52359;42.658;23.320;2022-07-29T02:02:35;13.23;;;11.57;;
43527;SDS011;52359;42.658;23.320;2022-07-29T02:05:01;15.95;;;11.88;;
43527;SDS011;52359;42.658;23.320;2022-07-29T02:07:28;16.50;;;11.80;;
43527;SDS011;52359;42.658;23.320;2022-07-29T02:09:55;17.63;;;12.13;;
43527;SDS011;52359;42.658;23.320;2022-07-29T02:12:21;15.52;;;10.57;;
43527;SDS011;52359;42.658;23.320;2022-07-29T02:14:48;15.45;;;10.60;;
43527;SDS011;52359;42.658;23.320;2022-07-29T02:17:19;16.83;;;11.63;;
43527;SDS011;52359;42.658;23.320;2022-07-29T02:19:46;17.48;;;11.15;;
43527;SDS011;52359;42.658;23.320;2022-07-29T02:22:13;13.80;;;11.75;;
43527;SDS011;52359;42.658;23.320;2022-07-29T02:24:40;16.73;;;11.93;;
43527;SDS011;52359;42.658;23.320;2022-07-29T02:27:06;12.48;;;11.23;;
43527;SDS011;52359;42.658;23.320;2022-07-29T02:29:33;14.95;;;11.18;;
43527;SDS011;52359;42.658;23.320;2022-07-29T02:32:00;16.27;;;11.18;;
43527;SDS011;52359;42.658;23.320;2022-07-29T02:34:27;19.85;;;10.88;;
43527;SDS011;52359;42.658;23.320;2022-07-29T02:36:54;12.60;;;10.63;;
43527;SDS011;52359;42.658;23.320;2022-07-29T02:39:21;16.20;;;11.02;;
43527;SDS011;52359;42.658;23.320;2022-07-29T02:41:48;18.48;;;12.07;;
43527;SDS011;52359;42.658;23.320;2022-07-29T02:44:16;14.02;;;11.38;;
43527;SDS011;52359;42.658;23.320;2022-07-29T02:46:46;12.88;;;10.98;;
43527;SDS011;52359;42.658;23.320;2022-07-29T02:49:34;16.13;;;11.25;;
43527;SDS011;52359;42.658;23.320;2022-07-29T02:52:12;12.18;;;10.68;;
43527;SDS011;52359;42.658;23.320;2022-07-29T02:54:47;14.18;;;10.82;;
43527;SDS011;52359;42.658;23.320;2022-07-29T02:58:03;15.40;;;11.18;;
43527;SDS011;52359;42.658;23.320;2022-07-29T03:00:07;14.25;;;10.45;;
43527;SDS011;52359;42.658;23.320;2022-07-29T03:02:35;13.82;;;10.90;;
43527;SDS011;52359;42.658;23.320;2022-07-29T03:05:03;13.10;;;10.05;;
43527;SDS011;52359;42.658;23.320;2022-07-29T03:07:29;14.00;;;8.77;;
43527;SDS011;52359;42.658;23.320;2022-07-29T03:09:55;12.15;;;9.50;;
43527;SDS011;52359;42.658;23.320;2022-07-29T03:12:22;20.83;;;9.60;;
43527;SDS011;52359;42.658;23.320;2022-07-29T03:14:49;10.82;;;9.07;;
43527;SDS011;52359;42.658;23.320;2022-07-29T03:17:15;10.00;;;8.30;;
43527;SDS011;52359;42.658;23.320;2022-07-29T03:19:41;17.48;;;8.98;;
43527;SDS011;52359;42.658;23.320;2022-07-29T03:22:07;20.70;;;9.02;;
43527;SDS011;52359;42.658;23.320;2022-07-29T03:24:34;9.45;;;8.18;;
43527;SDS011;52359;42.658;23.320;2022-07-29T03:27:01;9.32;;;7.53;;
43527;SDS011;52359;42.658;23.320;2022-07-29T03:29:27;12.75;;;8.43;;
43527;SDS011;52359;42.658;23.320;2022-07-29T03:31:54;10.05;;;8.63;;
43527;SDS011;52359;42.658;23.320;2022-07-29T03:34:20;11.80;;;7.65;;
43527;SDS011;52359;42.658;23.320;2022-07-29T03:36:46;17.20;;;7.75;;
43527;SDS011;52359;42.658;23.320;2022-07-29T03:39:13;12.85;;;8.60;;
43527;SDS011;52359;42.658;23.320;2022-07-29T03:41:41;13.25;;;9.13;;
43527;SDS011;52359;42.658;23.320;2022-07-29T03:44:08;14.80;;;9.05;;
43527;SDS011;52359;42.658;23.320;2022-07-29T03:46:35;18.27;;;9.27;;
43527;SDS011;52359;42.658;23.320;2022-07-29T03:49:02;9.32;;;8.43;;
43527;SDS011;52359;42.658;23.320;2022-07-29T03:51:29;9.98;;;8.30;;
43527;SDS011;52359;42.658;23.320;2022-07-29T03:53:56;8.65;;;7.82;;
43527;SDS011;52359;42.658;23.320;2022-07-29T03:56:22;9.13;;;8.30;;
43527;SDS011;52359;42.658;23.320;2022-07-29T03:58:52;15.23;;;8.93;;
43527;SDS011;52359;42.658;23.320;2022-07-29T04:01:18;8.57;;;7.05;;
43527;SDS011;52359;42.658;23.320;2022-07-29T04:03:45;10.20;;;7.57;;
43527;SDS011;52359;42.658;23.320;2022-07-29T04:06:11;13.30;;;7.65;;
43527;SDS011;52359;42.658;23.320;2022-07-29T04:08:37;13.88;;;7.68;;
43527;SDS011;52359;42.658;23.320;2022-07-29T04:11:04;10.95;;;8.85;;
43527;SDS011;52359;42.658;23.320;2022-07-29T04:13:31;17.05;;;9.05;;
43527;SDS011;52359;42.658;23.320;2022-07-29T04:15:57;14.75;;;8.57;;
43527;SDS011;52359;42.658;23.320;2022-07-29T04:18:23;14.90;;;9.63;;
43527;SDS011;52359;42.658;23.320;2022-07-29T04:20:50;17.88;;;9.25;;
43527;SDS011;52359;42.658;23.320;2022-07-29T04:23:16;18.35;;;9.55;;
43527;SDS011;52359;42.658;23.320;2022-07-29T04:25:42;16.63;;;10.70;;
43527;SDS011;52359;42.658;23.320;2022-07-29T04:28:09;20.23;;;10.48;;
43527;SDS011;52359;42.658;23.320;2022-07-29T04:30:35;14.57;;;10.32;;
43527;SDS011;52359;42.658;23.320;2022-07-29T04:33:03;19.35;;;10.32;;
43527;SDS011;52359;42.658;23.320;2022-07-29T04:35:30;15.85;;;10.30;;
43527;SDS011;52359;42.658;23.320;2022-07-29T04:37:56;16.15;;;9.40;;
43527;SDS011;52359;42.658;23.320;2022-07-29T04:40:22;16.48;;;9.48;;
43527;SDS011;52359;42.658;23.320;2022-07-29T04:42:48;14.38;;;11.05;;
43527;SDS011;52359;42.658;23.320;2022-07-29T04:45:14;19.00;;;10.48;;
43527;SDS011;52359;42.658;23.320;2022-07-29T04:47:39;18.75;;;9.63;;
43527;SDS011;52359;42.658;23.320;2022-07-29T04:50:06;22.33;;;9.20;;
43527;SDS011;52359;42.658;23.320;2022-07-29T04:52:32;14.40;;;8.40;;
43527;SDS011;52359;42.658;23.320;2022-07-29T04:55:00;16.05;;;9.25;;
43527;SDS011;52359;42.658;23.320;2022-07-29T04:57:26;15.13;;;8.68;;
43527;SDS011;52359;42.658;23.320;2022-07-29T04:59:52;11.88;;;7.60;;
43527;SDS011;52359;42.658;23.320;2022-07-29T05:02:18;9.95;;;6.75;;
43527;SDS011;52359;42.658;23.320;2022-07-29T05:04:44;11.30;;;6.97;;
43527;SDS011;52359;42.658;23.320;2022-07-29T05:07:10;10.23;;;6.32;;
43527;SDS011;52359;42.658;23.320;2022-07-29T05:09:36;8.93;;;6.78;;
43527;SDS011;52359;42.658;23.320;2022-07-29T05:12:02;9.60;;;5.75;;
43527;SDS011;52359;42.658;23.320;2022-07-29T05:14:28;20.52;;;6.50;;
43527;SDS011;52359;42.658;23.320;2022-07-29T05:16:54;9.68;;;5.65;;
43527;SDS011;52359;42.658;23.320;2022-07-29T05:19:22;8.00;;;5.78;;
43527;SDS011;52359;42.658;23.320;2022-07-29T05:21:48;10.60;;;5.75;;
43527;SDS011;52359;42.658;23.320;2022-07-29T05:24:14;11.23;;;5.90;;
43527;SDS011;52359;42.658;23.320;2022-07-29T05:26:41;11.50;;;6.47;;
43527;SDS011;52359;42.658;23.320;2022-07-29T05:29:07;9.32;;;6.20;;
43527;SDS011;52359;42.658;23.320;2022-07-29T05:31:33;6.80;;;6.20;;
43527;SDS011;52359;42.658;23.320;2022-07-29T05:33:59;13.48;;;6.63;;
43527;SDS011;52359;42.658;23.320;2022-07-29T05:36:25;11.77;;;6.40;;
43527;SDS011;52359;42.658;23.320;2022-07-29T05:38:51;11.57;;;6.22;;
43527;SDS011;52359;42.658;23.320;2022-07-29T05:41:18;7.05;;;5.78;;
43527;SDS011;52359;42.658;23.320;2022-07-29T05:43:44;12.90;;;6.00;;
43527;SDS011;52359;42.658;23.320;2022-07-29T05:46:10;8.57;;;5.97;;
43527;SDS011;52359;42.658;23.320;2022-07-29T05:48:36;8.27;;;5.55;;
43527;SDS011;52359;42.658;23.320;2022-07-29T05:51:02;11.82;;;6.45;;
43527;SDS011;52359;42.658;23.320;2022-07-29T05:53:28;15.82;;;6.40;;
43527;SDS011;52359;42.658;23.320;2022-07-29T05:55:53;6.55;;;5.35;;
43527;SDS011;52359;42.658;23.320;2022-07-29T05:58:19;11.80;;;6.47;;
43527;SDS011;52359;42.658;23.320;2022-07-29T06:00:45;9.85;;;5.88;;
43527;SDS011;52359;42.658;23.320;2022-07-29T06:03:11;20.55;;;7.72;;
43527;SDS011;52359;42.658;23.320;2022-07-29T06:05:37;12.00;;;7.40;;
43527;SDS011;52359;42.658;23.320;2022-07-29T06:08:03;12.30;;;7.43;;
43527;SDS011;52359;42.658;23.320;2022-07-29T06:10:32;10.90;;;7.93;;
43527;SDS011;52359;42.658;23.320;2022-07-29T06:13:00;10.18;;;6.60;;
43527;SDS011;52359;42.658;23.320;2022-07-29T06:15:26;13.75;;;6.88;;
43527;SDS011;52359;42.658;23.320;2022-07-29T06:17:52;13.57;;;6.93;;
43527;SDS011;52359;42.658;23.320;2022-07-29T06:20:18;14.13;;;7.78;;
43527;SDS011;52359;42.658;23.320;2022-07-29T06:22:44;13.40;;;6.90;;
43527;SDS011;52359;42.658;23.320;2022-07-29T06:25:10;8.65;;;6.50;;
43527;SDS011;52359;42.658;23.320;2022-07-29T06:27:37;7.60;;;5.55;;
43527;SDS011;52359;42.658;23.320;2022-07-29T06:30:03;9.88;;;6.50;;
43527;SDS011;52359;42.658;23.320;2022-07-29T06:32:31;8.15;;;6.68;;
43527;SDS011;52359;42.658;23.320;2022-07-29T06:34:57;15.30;;;5.63;;
43527;SDS011;52359;42.658;23.320;2022-07-29T06:37:23;8.77;;;5.57;;
43527;SDS011;52359;42.658;23.320;2022-07-29T06:39:49;11.07;;;6.60;;
43527;SDS011;52359;42.658;23.320;2022-07-29T06:42:42;6.55;;;5.53;;
43527;SDS011;52359;42.658;23.320;2022-07-29T06:45:08;6.85;;;5.75;;
43527;SDS011;52359;42.658;23.320;2022-07-29T06:47:35;11.30;;;5.63;;
43527;SDS011;52359;42.658;23.320;2022-07-29T06:50:01;13.10;;;5.35;;
43527;SDS011;52359;42.658;23.320;2022-07-29T06:52:27;20.20;;;6.40;;
43527;SDS011;52359;42.658;23.320;2022-07-29T06:54:53;6.82;;;6.13;;
43527;SDS011;52359;42.658;23.320;2022-07-29T06:57:20;6.57;;;5.70;;
43527;SDS011;52359;42.658;23.320;2022-07-29T06:59:46;11.68;;;5.90;;
43527;SDS011;52359;42.658;23.320;2022-07-29T07:02:12;8.93;;;5.40;;
43527;SDS011;52359;42.658;23.320;2022-07-29T07:04:38;7.60;;;5.95;;
43527;SDS011;52359;42.658;23.320;2022-07-29T07:07:04;9.23;;;5.78;;
43527;SDS011;52359;42.658;23.320;2022-07-29T07:09:30;14.77;;;5.82;;
43527;SDS011;52359;42.658;23.320;2022-07-29T07:11:56;7.53;;;5.10;;
43527;SDS011;52359;42.658;23.320;2022-07-29T07:14:22;9.02;;;5.32;;
43527;SDS011;52359;42.658;23.320;2022-07-29T07:16:51;8.95;;;5.63;;
43527;SDS011;52359;42.658;23.320;2022-07-29T07:19:17;7.18;;;5.28;;
43527;SDS011;52359;42.658;23.320;2022-07-29T07:21:44;13.07;;;5.38;;
43527;SDS011;52359;42.658;23.320;2022-07-29T07:24:10;6.30;;;5.32;;
43527;SDS011;52359;42.658;23.320;2022-07-29T07:26:36;15.70;;;5.60;;
43527;SDS011;52359;42.658;23.320;2022-07-29T07:29:04;12.48;;;6.05;;
43527;SDS011;52359;42.658;23.320;2022-07-29T07:31:30;9.45;;;4.65;;
43527;SDS011;52359;42.658;23.320;2022-07-29T07:33:56;7.20;;;5.15;;
43527;SDS011;52359;42.658;23.320;2022-07-29T07:36:23;4.47;;;4.03;;
43527;SDS011;52359;42.658;23.320;2022-07-29T07:38:49;8.90;;;4.63;;
43527;SDS011;52359;42.658;23.320;2022-07-29T07:41:15;5.20;;;4.03;;
43527;SDS011;52359;42.658;23.320;2022-07-29T07:43:41;7.78;;;4.35;;
43527;SDS011;52359;42.658;23.320;2022-07-29T07:46:07;7.68;;;4.15;;
43527;SDS011;52359;42.658;23.320;2022-07-29T07:48:33;7.28;;;4.00;;
43527;SDS011;52359;42.658;23.320;2022-07-29T07:51:00;6.68;;;4.18;;
43527;SDS011;52359;42.658;23.320;2022-07-29T07:53:26;7.32;;;3.78;;
43527;SDS011;52359;42.658;23.320;2022-07-29T07:55:52;3.75;;;3.40;;
43527;SDS011;52359;42.658;23.320;2022-07-29T07:58:18;9.27;;;3.92;;
43527;SDS011;52359;42.658;23.320;2022-07-29T08:00:44;6.90;;;3.90;;
43527;SDS011;52359;42.658;23.320;2022-07-29T08:03:10;8.38;;;3.60;;
43527;SDS011;52359;42.658;23.320;2022-07-29T08:05:39;5.07;;;3.50;;
43527;SDS011;52359;42.658;23.320;2022-07-29T08:08:06;6.03;;;3.67;;
43527;SDS011;52359;42.658;23.320;2022-07-29T08:10:32;7.10;;;3.58;;
43527;SDS011;52359;42.658;23.320;2022-07-29T08:13:17;9.73;;;3.55;;
43527;SDS011;52359;42.658;23.320;2022-07-29T08:15:44;4.75;;;3.85;;
43527;SDS011;52359;42.658;23.320;2022-07-29T08:18:10;6.60;;;4.10;;
43527;SDS011;52359;42.658;23.320;2022-07-29T08:20:37;9.57;;;3.90;;
43527;SDS011;52359;42.658;23.320;2022-07-29T08:23:04;7.80;;;4.13;;
43527;SDS011;52359;42.658;23.320;2022-07-29T08:25:31;11.93;;;3.42;;
43527;SDS011;52359;42.658;23.320;2022-07-29T08:28:16;7.50;;;3.75;;
43527;SDS011;52359;42.658;23.320;2022-07-29T08:30:42;11.40;;;4.13;;
43527;SDS011;52359;42.658;23.320;2022-07-29T08:33:08;11.60;;;4.05;;
43527;SDS011;52359;42.658;23.320;2022-07-29T08:35:34;3.50;;;2.97;;
43527;SDS011;52359;42.658;23.320;2022-07-29T08:38:00;3.70;;;3.35;;
43527;SDS011;52359;42.658;23.320;2022-07-29T08:40:28;5.22;;;3.88;;
43527;SDS011;52359;42.658;23.320;2022-07-29T08:42:54;5.60;;;3.13;;
43527;SDS011;52359;42.658;23.320;2022-07-29T08:45:20;18.65;;;3.63;;
43527;SDS011;52359;42.658;23.320;2022-07-29T08:47:48;6.20;;;2.63;;
43527;SDS011;52359;42.658;23.320;2022-07-29T08:50:14;14.52;;;3.83;;
43527;SDS011;52359;42.658;23.320;2022-07-29T08:52:40;7.53;;;3.58;;
43527;SDS011;52359;42.658;23.320;2022-07-29T08:55:07;18.70;;;3.10;;
43527;SDS011;52359;42.658;23.320;2022-07-29T08:57:34;4.60;;;3.20;;
43527;SDS011;52359;42.658;23.320;2022-07-29T09:00:01;4.55;;;3.22;;
43527;SDS011;52359;42.658;23.320;2022-07-29T09:02:29;9.13;;;3.60;;
43527;SDS011;52359;42.658;23.320;2022-07-29T09:04:56;5.40;;;3.60;;
43527;SDS011;52359;42.658;23.320;2022-07-29T09:07:23;3.63;;;3.10;;
43527;SDS011;52359;42.658;23.320;2022-07-29T09:09:49;11.75;;;3.55;;
43527;SDS011;52359;42.658;23.320;2022-07-29T09:12:16;6.90;;;3.30;;
43527;SDS011;52359;42.658;23.320;2022-07-29T09:14:43;3.75;;;3.10;;
43527;SDS011;52359;42.658;23.320;2022-07-29T09:17:09;6.40;;;3.08;;
43527;SDS011;52359;42.658;23.320;2022-07-29T09:19:36;5.43;;;3.83;;
43527;SDS011;52359;42.658;23.320;2022-07-29T09:22:03;11.27;;;4.18;;
43527;SDS011;52359;42.658;23.320;2022-07-29T09:26:59;7.15;;;3.45;;
43527;SDS011;52359;42.658;23.320;2022-07-29T09:29:25;8.25;;;3.63;;
43527;SDS011;52359;42.658;23.320;2022-07-29T09:31:52;4.70;;;3.30;;
43527;SDS011;52359;42.658;23.320;2022-07-29T09:34:26;4.53;;;3.35;;
43527;SDS011;52359;42.658;23.320;2022-07-29T09:36:54;3.05;;;2.83;;
43527;SDS011;52359;42.658;23.320;2022-07-29T09:39:30;7.35;;;3.47;;
43527;SDS011;52359;42.658;23.320;2022-07-29T09:41:57;4.43;;;3.55;;
43527;SDS011;52359;42.658;23.320;2022-07-29T09:44:24;7.57;;;3.10;;
43527;SDS011;52359;42.658;23.320;2022-07-29T09:47:03;8.27;;;3.20;;
43527;SDS011;52359;42.658;23.320;2022-07-29T09:49:49;5.90;;;3.20;;
43527;SDS011;52359;42.658;23.320;2022-07-29T09:52:15;10.10;;;3.78;;
43527;SDS011;52359;42.658;23.320;2022-07-29T09:54:42;6.75;;;3.60;;
43527;SDS011;52359;42.658;23.320;2022-07-29T09:57:08;7.38;;;3.42;;
43527;SDS011;52359;42.658;23.320;2022-07-29T09:59:37;4.38;;;3.45;;
43527;SDS011;52359;42.658;23.320;2022-07-29T10:02:13;4.00;;;3.70;;
43527;SDS011;52359;42.658;23.320;2022-07-29T10:04:40;6.53;;;3.25;;
43527;SDS011;52359;42.658;23.320;2022-07-29T10:07:07;12.63;;;3.42;;
43527;SDS011;52359;42.658;23.320;2022-07-29T10:09:33;6.25;;;3.25;;
43527;SDS011;52359;42.658;23.320;2022-07-29T10:12:03;4.28;;;3.80;;
43527;SDS011;52359;42.658;23.320;2022-07-29T10:14:33;5.25;;;3.70;;
43527;SDS011;52359;42.658;23.320;2022-07-29T10:17:00;8.70;;;3.72;;
43527;SDS011;52359;42.658;23.320;2022-07-29T10:19:27;7.07;;;5.13;;
43527;SDS011;52359;42.658;23.320;2022-07-29T10:21:54;18.10;;;6.78;;
43527;SDS011;52359;42.658;23.320;2022-07-29T10:24:21;3.88;;;3.45;;
43527;SDS011;52359;42.658;23.320;2022-07-29T10:26:48;3.90;;;3.50;;
43527;SDS011;52359;42.658;23.320;2022-07-29T10:29:14;4.88;;;3.33;;
43527;SDS011;52359;42.658;23.320;2022-07-29T10:42:54;7.05;;;3.75;;
43527;SDS011;52359;42.658;23.320;2022-07-29T10:45:21;8.18;;;4.35;;
43527;SDS011;52359;42.658;23.320;2022-07-29T10:47:47;6.25;;;4.25;;
43527;SDS011;52359;42.658;23.320;2022-07-29T10:50:13;7.15;;;4.15;;
43527;SDS011;52359;42.658;23.320;2022-07-29T10:53:01;4.85;;;4.30;;
43527;SDS011;52359;42.658;23.320;2022-07-29T10:55:32;6.22;;;4.18;;
43527;SDS011;52359;42.658;23.320;2022-07-29T10:58:11;6.82;;;4.57;;
43527;SDS011;52359;42.658;23.320;2022-07-29T11:00:38;4.55;;;3.90;;
43527;SDS011;52359;42.658;23.320;2022-07-29T11:03:04;4.72;;;4.00;;
43527;SDS011;52359;42.658;23.320;2022-07-29T11:05:30;6.05;;;4.10;;
43527;SDS011;52359;42.658;23.320;2022-07-29T11:08:17;6.20;;;3.75;;
43527;SDS011;52359;42.658;23.320;2022-07-29T11:10:46;4.30;;;3.85;;
43527;SDS011;52359;42.658;23.320;2022-07-29T11:13:12;5.03;;;4.50;;
43527;SDS011;52359;42.658;23.320;2022-07-29T11:15:54;7.35;;;4.20;;
43527;SDS011;52359;42.658;23.320;2022-07-29T11:18:20;4.25;;;3.67;;
43527;SDS011;52359;42.658;23.320;2022-07-29T11:20:47;6.47;;;4.07;;
43527;SDS011;52359;42.658;23.320;2022-07-29T11:28:35;5.35;;;4.07;;
43527;SDS011;52359;42.658;23.320;2022-07-29T11:31:04;9.95;;;4.40;;
43527;SDS011;52359;42.658;23.320;2022-07-29T11:33:32;8.23;;;3.95;;
43527;SDS011;52359;42.658;23.320;2022-07-29T11:38:33;7.72;;;3.72;;
43527;SDS011;52359;42.658;23.320;2022-07-29T11:43:48;6.95;;;4.28;;
43527;SDS011;52359;42.658;23.320;2022-07-29T11:46:14;7.00;;;4.00;;
43527;SDS011;52359;42.658;23.320;2022-07-29T11:48:43;4.38;;;3.70;;
43527;SDS011;52359;42.658;23.320;2022-07-29T11:51:09;3.72;;;3.42;;
43527;SDS011;52359;42.658;23.320;2022-07-29T11:53:36;7.38;;;3.75;;
43527;SDS011;52359;42.658;23.320;2022-07-29T11:56:03;4.45;;;4.05;;
43527;SDS011;52359;42.658;23.320;2022-07-29T11:58:29;4.68;;;3.75;;
43527;SDS011;52359;42.658;23.320;2022-07-29T12:00:56;4.22;;;3.80;;
43527;SDS011;52359;42.658;23.320;2022-07-29T12:03:24;6.40;;;3.53;;
43527;SDS011;52359;42.658;23.320;2022-07-29T12:05:50;5.93;;;3.60;;
43527;SDS011;52359;42.658;23.320;2022-07-29T12:08:18;7.93;;;3.72;;
43527;SDS011;52359;42.658;23.320;2022-07-29T12:10:46;5.93;;;3.80;;
43527;SDS011;52359;42.658;23.320;2022-07-29T12:13:14;5.97;;;4.07;;
43527;SDS011;52359;42.658;23.320;2022-07-29T12:15:40;5.20;;;3.63;;
43527;SDS011;52359;42.658;23.320;2022-07-29T12:18:09;3.88;;;3.58;;
43527;SDS011;52359;42.658;23.320;2022-07-29T12:20:36;4.20;;;3.80;;
43527;SDS011;52359;42.658;23.320;2022-07-29T12:23:05;4.07;;;3.55;;
43527;SDS011;52359;42.658;23.320;2022-07-29T12:25:32;5.45;;;3.90;;
43527;SDS011;52359;42.658;23.320;2022-07-29T12:28:01;3.90;;;3.70;;
43527;SDS011;52359;42.658;23.320;2022-07-29T12:30:37;4.10;;;3.78;;
43527;SDS011;52359;42.658;23.320;2022-07-29T12:33:13;4.90;;;3.90;;
43527;SDS011;52359;42.658;23.320;2022-07-29T12:35:40;4.22;;;3.65;;
43527;SDS011;52359;42.658;23.320;2022-07-29T12:38:08;5.15;;;3.63;;
43527;SDS011;52359;42.658;23.320;2022-07-29T12:40:34;5.38;;;3.55;;
43527;SDS011;52359;42.658;23.320;2022-07-29T12:45:34;4.25;;;3.85;;
43527;SDS011;52359;42.658;23.320;2022-07-29T12:48:00;5.88;;;3.70;;
43527;SDS011;52359;42.658;23.320;2022-07-29T12:50:26;4.40;;;3.90;;
43527;SDS011;52359;42.658;23.320;2022-07-29T12:52:52;4.00;;;3.58;;
43527;SDS011;52359;42.658;23.320;2022-07-29T12:58:03;4.50;;;4.10;;
43527;SDS011;52359;42.658;23.320;2022-07-29T13:00:29;3.95;;;3.65;;
43527;SDS011;52359;42.658;23.320;2022-07-29T13:02:56;9.07;;;4.25;;
43527;SDS011;52359;42.658;23.320;2022-07-29T13:05:22;4.30;;;3.55;;
43527;SDS011;52359;42.658;23.320;2022-07-29T13:07:49;3.75;;;3.45;;
43527;SDS011;52359;42.658;23.320;2022-07-29T13:10:17;4.30;;;3.65;;
43527;SDS011;52359;42.658;23.320;2022-07-29T13:15:28;3.92;;;3.60;;
43527;SDS011;52359;42.658;23.320;2022-07-29T13:17:54;4.63;;;4.13;;
43527;SDS011;52359;42.658;23.320;2022-07-29T13:20:23;5.93;;;4.18;;
43527;SDS011;52359;42.658;23.320;2022-07-29T13:22:50;3.85;;;3.55;;
43527;SDS011;52359;42.658;23.320;2022-07-29T13:25:23;5.22;;;3.90;;
43527;SDS011;52359;42.658;23.320;2022-07-29T13:27:49;9.00;;;4.63;;
43527;SDS011;52359;42.658;23.320;2022-07-29T13:30:15;5.43;;;4.25;;
43527;SDS011;52359;42.658;23.320;2022-07-29T13:32:41;6.85;;;3.72;;
43527;SDS011;52359;42.658;23.320;2022-07-29T13:35:08;8.70;;;3.60;;
43527;SDS011;52359;42.658;23.320;2022-07-29T13:37:35;5.15;;;4.03;;
43527;SDS011;52359;42.658;23.320;2022-07-29T13:40:03;4.45;;;4.15;;
43527;SDS011;52359;42.658;23.320;2022-07-29T13:42:30;5.85;;;3.65;;
43527;SDS011;52359;42.658;23.320;2022-07-29T13:44:56;4.90;;;3.83;;
43527;SDS011;52359;42.658;23.320;2022-07-29T13:47:22;5.80;;;3.75;;
43527;SDS011;52359;42.658;23.320;2022-07-29T13:49:48;3.83;;;3.53;;
43527;SDS011;52359;42.658;23.320;2022-07-29T13:52:14;7.32;;;3.58;;
43527;SDS011;52359;42.658;23.320;2022-07-29T13:54:41;7.93;;;3.55;;
43527;SDS011;52359;42.658;23.320;2022-07-29T13:57:07;5.93;;;3.95;;
43527;SDS011;52359;42.658;23.320;2022-07-29T13:59:35;4.07;;;3.63;;
43527;SDS011;52359;42.658;23.320;2022-07-29T14:02:01;8.25;;;3.67;;
43527;SDS011;52359;42.658;23.320;2022-07-29T14:04:27;6.80;;;3.90;;
43527;SDS011;52359;42.658;23.320;2022-07-29T14:06:53;4.55;;;3.90;;
43527;SDS011;52359;42.658;23.320;2022-07-29T14:09:19;6.38;;;4.15;;
43527;SDS011;52359;42.658;23.320;2022-07-29T14:11:45;5.28;;;3.78;;
43527;SDS011;52359;42.658;23.320;2022-07-29T14:14:14;7.28;;;3.78;;
43527;SDS011;52359;42.658;23.320;2022-07-29T14:16:40;5.45;;;4.00;;
43527;SDS011;52359;42.658;23.320;2022-07-29T14:19:06;4.30;;;3.60;;
43527;SDS011;52359;42.658;23.320;2022-07-29T14:21:32;5.07;;;3.85;;
43527;SDS011;52359;42.658;23.320;2022-07-29T14:23:59;7.13;;;3.72;;
43527;SDS011;52359;42.658;23.320;2022-07-29T14:26:25;5.13;;;4.35;;
43527;SDS011;52359;42.658;23.320;2022-07-29T14:28:51;5.75;;;3.63;;
43527;SDS011;52359;42.658;23.320;2022-07-29T14:31:17;7.28;;;3.88;;
43527;SDS011;52359;42.658;23.320;2022-07-29T14:33:43;5.28;;;3.83;;
43527;SDS011;52359;42.658;23.320;2022-07-29T14:36:09;5.10;;;3.88;;
43527;SDS011;52359;42.658;23.320;2022-07-29T14:38:36;4.38;;;3.97;;
43527;SDS011;52359;42.658;23.320;2022-07-29T14:41:03;7.00;;;4.28;;
43527;SDS011;52359;42.658;23.320;2022-07-29T14:43:29;5.47;;;3.95;;
43527;SDS011;52359;42.658;23.320;2022-07-29T14:45:56;4.50;;;4.13;;
43527;SDS011;52359;42.658;23.320;2022-07-29T14:48:22;6.97;;;4.30;;
43527;SDS011;52359;42.658;23.320;2022-07-29T14:50:48;5.10;;;4.10;;
43527;SDS011;52359;42.658;23.320;2022-07-29T14:53:14;4.63;;;4.00;;
43527;SDS011;52359;42.658;23.320;2022-07-29T14:55:40;5.70;;;4.35;;
43527;SDS011;52359;42.658;23.320;2022-07-29T14:58:07;7.82;;;4.38;;
43527;SDS011;52359;42.658;23.320;2022-07-29T15:00:33;4.28;;;3.88;;
43527;SDS011;52359;42.658;23.320;2022-07-29T15:02:59;12.45;;;4.55;;
43527;SDS011;52359;42.658;23.320;2022-07-29T15:05:26;4.63;;;3.97;;
43527;SDS011;52359;42.658;23.320;2022-07-29T15:07:52;4.40;;;4.00;;
43527;SDS011;52359;42.658;23.320;2022-07-29T15:10:18;12.00;;;4.80;;